Time;durP1;ratioP1;P1;durP2;ratioP2;P2;SDS_P1;SDS_P2;PMS_P1;PMS_P2;Temp;Humidity;BMP_temperature;BMP_pressure;BME280_temperature;BME280_humidity;BME280_pressure;Samples;Min_cycle;Max_cycle;Signal;HPM_P1;HPM_P2
2024/02/03 00:00:07;;;;;;;4.93;0.50;;;;;;;3.64;79.20;98869.78;5065625;28;20052;-75
2024/02/03 00:02:34;;;;;;;9.82;0.75;;;;;;;3.64;79.16;98870.66;5070258;28;20053;-75
2024/02/03 00:05:01;;;;;;;7.90;0.30;;;;;;;3.64;79.04;98873.25;5066442;28;20058;-75
2024/02/03 00:07:29;;;;;;;5.38;0.22;;;;;;;3.64;79.10;98877.53;5068695;28;20122;-74
2024/02/03 00:09:56;;;;;;;6.25;1.63;;;;;;;3.63;79.02;98876.69;5065215;28;20165;-75
2024/02/03 00:12:26;;;;;;;7.60;0.43;;;;;;;3.64;78.91;98875.84;5069266;28;20108;-74
2024/02/03 00:14:53;;;;;;;8.00;1.02;;;;;;;3.65;78.94;98882.69;5068118;28;20044;-74
2024/02/03 00:17:20;;;;;;;6.53;0.50;;;;;;;3.65;78.95;98882.69;5069041;28;20494;-75
2024/02/03 00:19:47;;;;;;;9.48;0.60;;;;;;;3.65;79.09;98881.84;5069599;28;20044;-74
2024/02/03 00:22:14;;;;;;;5.05;0.30;;;;;;;3.61;78.85;98870.75;5064339;28;20102;-74
2024/02/03 00:24:43;;;;;;;2.22;0.30;;;;;;;3.65;79.15;98881.84;5068522;28;20560;-75
2024/02/03 00:27:10;;;;;;;6.05;1.05;;;;;;;3.66;79.19;98875.78;5067397;28;20524;-75
2024/02/03 00:29:37;;;;;;;2.33;0.52;;;;;;;3.65;78.95;98877.53;5067746;28;20072;-74
2024/02/03 00:32:04;;;;;;;4.60;0.40;;;;;;;3.60;79.03;98865.59;5066647;28;20133;-74
2024/02/03 00:34:31;;;;;;;6.00;0.30;;;;;;;3.66;78.87;98873.19;5066878;28;20049;-74
2024/02/03 00:36:58;;;;;;;7.07;0.32;;;;;;;3.65;78.99;98872.34;5068101;28;20113;-75
2024/02/03 00:39:25;;;;;;;8.18;0.75;;;;;;;3.66;78.97;98874.03;5067729;28;20105;-74
2024/02/03 00:41:54;;;;;;;9.07;0.38;;;;;;;3.66;78.99;98868.03;5065312;28;20098;-74
2024/02/03 00:44:21;;;;;;;4.75;1.00;;;;;;;3.67;79.07;98880.09;5068162;28;20114;-74
2024/02/03 00:46:48;;;;;;;4.45;0.40;;;;;;;3.67;79.10;98891.28;5064099;28;20083;-75
2024/02/03 00:49:15;;;;;;;5.78;0.30;;;;;;;3.67;79.04;98878.34;5068469;28;20443;-74
2024/02/03 00:51:42;;;;;;;3.65;0.80;;;;;;;3.69;79.02;98888.63;5065936;28;20701;-73
2024/02/03 00:54:09;;;;;;;7.45;0.22;;;;;;;3.66;79.09;98879.22;5066781;28;20071;-75
2024/02/03 00:56:36;;;;;;;7.55;0.40;;;;;;;3.68;79.06;98895.53;5066563;28;20179;-73
2024/02/03 00:59:04;;;;;;;6.63;0.28;;;;;;;3.69;79.02;98889.47;5069421;28;20217;-73
2024/02/03 01:01:32;;;;;;;6.13;0.30;;;;;;;3.69;78.64;98893.81;5066748;28;20149;-73
2024/02/03 01:03:59;;;;;;;7.32;0.40;;;;;;;3.69;78.97;98886.88;5067168;28;20048;-73
2024/02/03 01:06:26;;;;;;;5.80;0.40;;;;;;;3.70;79.05;98886.03;5068572;28;20102;-73
2024/02/03 01:08:53;;;;;;;7.20;0.20;;;;;;;3.69;78.99;98879.13;5068047;28;20044;-73
2024/02/03 01:11:20;;;;;;;6.22;0.70;;;;;;;3.71;78.99;98886.88;5067642;28;21629;-73
2024/02/03 01:13:47;;;;;;;8.23;0.40;;;;;;;3.70;78.94;98891.19;5065993;28;20090;-73
2024/02/03 01:16:16;;;;;;;3.78;0.50;;;;;;;3.72;78.90;98886.84;5068102;28;20078;-73
2024/02/03 01:18:44;;;;;;;4.95;0.30;;;;;;;3.72;78.73;98892.00;5067283;28;20052;-73
2024/02/03 01:21:16;;;;;;;6.63;0.30;;;;;;;3.74;78.87;98894.53;5057296;28;20102;-73
2024/02/03 01:23:43;;;;;;;6.90;0.35;;;;;;;3.75;79.13;98896.22;5067319;28;20130;-73
2024/02/03 01:26:10;;;;;;;7.10;1.15;;;;;;;3.76;78.74;98902.28;5066349;28;20045;-73
2024/02/03 01:28:37;;;;;;;6.75;0.63;;;;;;;3.75;78.59;98898.81;5068000;28;20076;-73
2024/02/03 01:31:05;;;;;;;6.10;0.40;;;;;;;3.75;78.99;98893.66;5061296;28;20084;-73
2024/02/03 01:33:33;;;;;;;4.10;0.22;;;;;;;3.77;78.97;98891.03;5063235;28;20048;-74
2024/02/03 01:36:00;;;;;;;6.25;0.28;;;;;;;3.77;78.88;98896.22;5068182;28;20180;-73
2024/02/03 01:38:27;;;;;;;4.65;0.43;;;;;;;3.76;78.52;98897.94;5067991;28;20052;-73
2024/02/03 01:40:54;;;;;;;2.40;0.93;;;;;;;3.76;78.90;98897.09;5063509;28;20125;-74
2024/02/03 01:43:20;;;;;;;7.40;0.35;;;;;;;3.77;78.82;98902.22;5065663;28;20056;-73
2024/02/03 01:45:47;;;;;;;4.78;0.22;;;;;;;3.77;78.75;98896.22;5068478;28;20045;-74
2024/02/03 01:48:15;;;;;;;7.38;0.80;;;;;;;3.80;79.07;98906.47;5064227;28;20114;-73
2024/02/03 01:50:48;;;;;;;2.25;0.22;;;;;;;3.79;78.59;98905.63;5065854;28;20052;-76
2024/02/03 01:53:17;;;;;;;11.57;0.77;;;;;;;3.80;78.79;98904.72;5067843;28;21340;-75
2024/02/03 01:55:45;;;;;;;4.18;0.20;;;;;;;3.80;78.85;98894.38;5068704;28;20052;-76
2024/02/03 01:58:12;;;;;;;5.38;0.50;;;;;;;3.79;78.74;98889.28;5068135;28;20438;-76
2024/02/03 02:00:39;;;;;;;4.78;0.28;;;;;;;3.80;78.62;98885.78;5062258;28;20102;-72
2024/02/03 02:03:06;;;;;;;4.90;0.95;;;;;;;3.81;78.83;98884.88;5061858;28;20045;-72
2024/02/03 02:05:33;;;;;;;12.40;0.45;;;;;;;3.82;78.85;98890.03;5065177;28;20402;-72
2024/02/03 02:08:02;;;;;;;1.15;0.20;;;;;;;3.82;78.90;98884.84;5067781;28;20099;-72
2024/02/03 02:10:29;;;;;;;4.93;0.40;;;;;;;3.83;78.59;98881.38;5066610;28;20040;-72
2024/02/03 02:12:56;;;;;;;3.42;0.20;;;;;;;3.84;78.61;98889.97;5066997;28;20052;-72
2024/02/03 02:15:23;;;;;;;5.18;0.95;;;;;;;3.84;78.79;98880.50;5066485;28;20507;-72
2024/02/03 02:17:57;;;;;;;7.28;0.80;;;;;;;3.84;78.62;98882.22;5066492;28;20643;-71
2024/02/03 02:20:26;;;;;;;2.22;0.20;;;;;;;3.85;78.67;98886.53;5063983;28;20060;-72
2024/02/03 02:22:53;;;;;;;3.38;0.20;;;;;;;3.81;78.56;98887.47;5064470;28;20127;-72
2024/02/03 02:25:20;;;;;;;3.15;0.20;;;;;;;3.84;78.75;98890.84;5066369;28;20098;-71
2024/02/03 02:27:47;;;;;;;4.22;0.30;;;;;;;3.86;78.66;98894.22;5067262;28;20121;-72
2024/02/03 02:30:14;;;;;;;7.22;0.30;;;;;;;3.87;78.44;98897.69;5067109;28;20110;-72
2024/02/03 02:32:41;;;;;;;6.53;0.20;;;;;;;3.87;78.50;98902.88;5067505;28;20045;-71
2024/02/03 02:35:09;;;;;;;7.25;0.30;;;;;;;3.87;78.60;98898.53;5065838;28;20049;-72
2024/02/03 02:37:37;;;;;;;3.38;0.20;;;;;;;3.87;78.65;98908.88;5066464;28;20072;-72
2024/02/03 02:40:05;;;;;;;5.55;0.60;;;;;;;3.88;78.58;98899.38;5066149;28;20048;-72
2024/02/03 02:42:32;;;;;;;3.85;0.20;;;;;;;3.86;78.70;98902.00;5065243;28;20487;-76
2024/02/03 02:44:59;;;;;;;6.80;0.40;;;;;;;3.89;78.52;98912.25;5066701;28;20046;-72
2024/02/03 02:47:26;;;;;;;3.95;0.40;;;;;;;3.89;78.44;98906.25;5064322;28;20052;-73
2024/02/03 02:49:53;;;;;;;2.45;0.20;;;;;;;3.88;78.58;98914.91;5062622;28;21108;-72
2024/02/03 02:52:20;;;;;;;2.75;0.43;;;;;;;3.90;78.37;98918.31;5068157;28;20049;-72
2024/02/03 02:54:49;;;;;;;3.00;0.30;;;;;;;3.90;78.68;98924.31;5068000;28;20071;-72
2024/02/03 02:57:16;;;;;;;6.85;0.30;;;;;;;3.90;78.40;98919.16;5065327;28;20040;-72
2024/02/03 02:59:43;;;;;;;2.05;0.30;;;;;;;3.90;78.38;98923.47;5067186;28;20094;-79
2024/02/03 03:02:10;;;;;;;7.70;0.20;;;;;;;3.90;78.48;98929.50;5071055;28;20048;-79
2024/02/03 03:04:37;;;;;;;4.30;0.38;;;;;;;3.90;78.28;98929.50;5068022;28;20553;-79
2024/02/03 03:07:04;;;;;;;7.45;0.73;;;;;;;3.87;78.13;98924.41;5064563;28;20052;-79
2024/02/03 03:09:31;;;;;;;3.67;0.28;;;;;;;3.91;78.33;98922.59;5069777;28;20938;-76
2024/02/03 03:11:59;;;;;;;5.93;0.20;;;;;;;3.90;78.29;98913.97;5068932;28;20064;-75
2024/02/03 03:14:26;;;;;;;3.28;0.20;;;;;;;3.90;78.40;98913.13;5064625;28;20487;-75
2024/02/03 03:16:54;;;;;;;4.10;0.30;;;;;;;3.90;78.30;98919.16;5068023;28;20056;-75
2024/02/03 03:19:21;;;;;;;3.65;0.30;;;;;;;3.90;78.21;98908.81;5064518;28;20079;-75
2024/02/03 03:21:48;;;;;;;4.55;0.28;;;;;;;3.91;78.33;98915.66;5068148;28;20182;-75
2024/02/03 03:24:15;;;;;;;8.43;1.20;;;;;;;3.91;78.43;98909.66;5067929;28;20490;-76
2024/02/03 03:26:43;;;;;;;4.55;0.85;;;;;;;3.92;78.34;98926.84;5066265;28;20478;-75
2024/02/03 03:29:12;;;;;;;2.88;0.22;;;;;;;3.93;78.26;98915.63;5067400;28;20052;-75
2024/02/03 03:31:39;;;;;;;7.20;0.30;;;;;;;3.93;78.17;98910.47;5066834;28;20040;-75
2024/02/03 03:34:07;;;;;;;8.75;0.30;;;;;;;3.93;78.13;98915.63;5067527;28;20183;-75
2024/02/03 03:36:34;;;;;;;4.55;0.20;;;;;;;3.92;78.19;98914.78;5066259;28;20080;-76
2024/02/03 03:39:01;;;;;;;8.05;0.30;;;;;;;3.92;78.15;98922.56;5069663;28;20076;-76
2024/02/03 03:41:28;;;;;;;2.60;0.30;;;;;;;3.91;78.20;98925.16;5069818;28;20829;-77
2024/02/03 03:43:54;;;;;;;7.30;0.38;;;;;;;3.92;78.18;98934.63;5070507;28;20600;-75
2024/02/03 03:46:23;;;;;;;6.53;0.28;;;;;;;3.92;78.08;98943.25;5072137;28;20059;-75
2024/02/03 03:48:50;;;;;;;9.60;0.30;;;;;;;3.93;78.29;98949.28;5068699;28;20136;-75
2024/02/03 03:51:17;;;;;;;5.13;0.85;;;;;;;3.93;78.14;98950.13;5070326;28;20072;-75
2024/02/03 03:53:44;;;;;;;1.58;0.10;;;;;;;3.94;78.08;98943.19;5070643;28;20083;-76
2024/02/03 03:56:11;;;;;;;4.88;0.20;;;;;;;3.94;78.10;98940.63;5071017;28;20076;-76
2024/02/03 03:58:38;;;;;;;3.28;0.20;;;;;;;3.94;78.13;98940.63;5070103;28;20677;-75
2024/02/03 04:01:05;;;;;;;3.40;0.32;;;;;;;3.93;78.14;98947.53;5071515;28;20475;-75
2024/02/03 04:03:33;;;;;;;4.38;0.28;;;;;;;3.93;78.08;98950.13;5071013;28;20099;-75
2024/02/03 04:06:00;;;;;;;4.93;0.43;;;;;;;3.93;77.98;98947.53;5069670;28;20076;-75
2024/02/03 04:08:27;;;;;;;8.00;0.77;;;;;;;3.94;77.80;98956.13;5068985;28;20124;-74
2024/02/03 04:10:54;;;;;;;9.60;0.30;;;;;;;3.93;78.01;98954.44;5071464;28;20563;-75
2024/02/03 04:13:22;;;;;;;2.72;0.40;;;;;;;3.92;77.91;98960.50;5072039;28;20482;-75
2024/02/03 04:15:49;;;;;;;5.43;0.20;;;;;;;3.93;77.58;98964.81;5068648;28;20052;-75
2024/02/03 04:18:16;;;;;;;2.10;0.28;;;;;;;3.90;77.74;98964.88;5070998;28;21544;-75
2024/02/03 04:20:44;;;;;;;4.47;0.20;;;;;;;3.93;77.69;98959.63;5068919;28;20514;-72
2024/02/03 04:23:11;;;;;;;2.58;0.10;;;;;;;3.91;77.91;98957.06;5068595;28;20064;-72
2024/02/03 04:25:38;;;;;;;2.85;0.52;;;;;;;3.89;77.71;98953.66;5068955;28;20090;-72
2024/02/03 04:28:05;;;;;;;6.47;0.20;;;;;;;3.89;77.88;98953.66;5069295;28;20088;-72
2024/02/03 04:30:32;;;;;;;5.13;0.40;;;;;;;3.86;77.62;98951.13;5069691;28;20076;-72
2024/02/03 04:32:59;;;;;;;3.90;0.80;;;;;;;3.84;77.84;98939.13;5069375;28;20449;-72
2024/02/03 04:35:26;;;;;;;0.80;0.20;;;;;;;3.88;77.75;98954.56;5067948;28;20137;-72
2024/02/03 04:38:01;;;;;;;4.63;0.10;;;;;;;3.88;77.80;98943.34;5067700;28;20072;-72
2024/02/03 04:40:28;;;;;;;5.15;0.17;;;;;;;3.88;77.86;98951.97;5068714;28;20130;-72
2024/02/03 04:42:55;;;;;;;3.67;0.17;;;;;;;3.89;77.70;98942.47;5047618;28;20132;-72
2024/02/03 04:45:22;;;;;;;2.88;0.30;;;;;;;3.88;77.57;98948.53;5067550;28;20087;-73
2024/02/03 04:47:49;;;;;;;2.85;0.20;;;;;;;3.87;77.66;98946.84;5065035;28;20139;-72
2024/02/03 04:50:16;;;;;;;5.70;0.20;;;;;;;3.87;77.68;98944.25;5067685;28;20163;-72
2024/02/03 04:52:43;;;;;;;3.28;0.20;;;;;;;3.87;77.75;98950.28;5065301;28;20127;-72
2024/02/03 04:55:12;;;;;;;5.07;0.10;;;;;;;3.81;77.66;98945.25;5067798;28;20085;-73
2024/02/03 04:57:39;;;;;;;4.57;0.20;;;;;;;3.86;77.73;98953.72;5066511;28;20045;-72
2024/02/03 05:00:08;;;;;;;5.85;0.20;;;;;;;3.84;77.63;98959.81;5065899;28;20080;-73
2024/02/03 05:02:35;;;;;;;1.70;0.20;;;;;;;3.86;77.72;98963.22;5066187;28;20113;-72
2024/02/03 05:05:02;;;;;;;3.25;0.10;;;;;;;3.86;77.71;98961.50;5065411;28;20123;-72
2024/02/03 05:07:31;;;;;;;2.13;0.10;;;;;;;3.87;77.94;98964.94;5067781;28;20044;-72
2024/02/03 05:09:58;;;;;;;1.77;0.10;;;;;;;3.86;77.73;98963.22;5065528;28;20067;-72
2024/02/03 05:12:27;;;;;;;1.85;0.10;;;;;;;3.86;77.64;98969.25;5066998;28;20460;-72
2024/02/03 05:14:54;;;;;;;1.77;0.10;;;;;;;3.86;77.75;98963.22;5063535;28;20079;-71
2024/02/03 05:17:21;;;;;;;4.43;0.20;;;;;;;3.88;77.53;98971.81;5069244;28;20494;-72
2024/02/03 05:19:48;;;;;;;6.78;0.10;;;;;;;3.87;77.87;98968.38;5062915;28;20080;-75
2024/02/03 05:22:15;;;;;;;3.05;0.30;;;;;;;3.88;77.79;98975.25;5069829;28;20084;-76
2024/02/03 05:24:42;;;;;;;3.30;0.20;;;;;;;3.88;77.75;98970.06;5063844;28;20500;-76
2024/02/03 05:27:09;;;;;;;2.60;0.13;;;;;;;3.85;77.30;98971.91;5071447;28;20080;-76
2024/02/03 05:29:41;;;;;;;4.57;0.20;;;;;;;3.89;77.60;98978.69;5066695;28;20123;-72
2024/02/03 05:32:08;;;;;;;1.98;0.20;;;;;;;3.88;77.49;98979.56;5066989;28;20087;-72
2024/02/03 05:34:35;;;;;;;2.28;0.40;;;;;;;3.90;77.68;98985.56;5064872;28;20652;-72
2024/02/03 05:37:02;;;;;;;4.15;0.70;;;;;;;3.86;77.65;98978.75;5066959;28;20486;-72
2024/02/03 05:39:29;;;;;;;0.70;0.10;;;;;;;3.89;77.68;98989.03;5064282;28;20063;-72
2024/02/03 05:41:56;;;;;;;3.88;0.68;;;;;;;3.90;77.47;98980.41;5068640;28;20076;-72
2024/02/03 05:44:23;;;;;;;3.00;0.10;;;;;;;3.91;77.59;98987.25;5063708;28;20111;-72
2024/02/03 05:46:51;;;;;;;3.53;0.25;;;;;;;3.92;77.55;98983.78;5065530;28;20127;-72
2024/02/03 05:49:18;;;;;;;2.65;0.10;;;;;;;3.91;77.79;98977.75;5064402;28;20099;-72
2024/02/03 05:51:45;;;;;;;5.72;0.20;;;;;;;3.91;77.37;98977.75;5067506;28;20076;-72
2024/02/03 05:54:12;;;;;;;2.47;0.57;;;;;;;3.91;77.40;98982.94;5064453;28;20137;-72
2024/02/03 05:56:39;;;;;;;4.95;0.17;;;;;;;3.90;77.62;98985.56;5066046;28;20079;-72
2024/02/03 05:59:06;;;;;;;6.53;0.20;;;;;;;3.91;77.71;98992.44;5064759;28;20082;-72
2024/02/03 06:01:33;;;;;;;1.63;0.00;;;;;;;3.83;77.87;98984.84;5064930;28;20098;-72
2024/02/03 06:04:04;;;;;;;2.67;0.03;;;;;;;3.90;77.54;98994.19;5065317;28;20123;-72
2024/02/03 06:06:31;;;;;;;2.28;0.10;;;;;;;3.92;77.39;98994.13;5062502;28;20628;-72
2024/02/03 06:08:58;;;;;;;1.60;0.13;;;;;;;3.89;77.26;98989.88;5064808;28;20083;-72
2024/02/03 06:11:25;;;;;;;10.15;0.10;;;;;;;3.92;77.30;98991.53;5064041;28;20866;-71
2024/02/03 06:13:52;;;;;;;2.47;0.25;;;;;;;3.93;77.32;98995.84;5066165;28;20072;-72
2024/02/03 06:16:19;;;;;;;2.10;0.08;;;;;;;3.92;77.11;98991.53;5064775;28;20721;-71
2024/02/03 06:18:46;;;;;;;1.30;0.10;;;;;;;3.93;77.16;98993.25;5066550;28;20076;-72
2024/02/03 06:21:15;;;;;;;0.75;0.00;;;;;;;3.92;77.12;98987.25;5063827;28;20141;-72
2024/02/03 06:23:42;;;;;;;2.55;0.10;;;;;;;3.92;77.09;98988.94;5068473;28;20051;-72
2024/02/03 06:26:10;;;;;;;0.90;0.08;;;;;;;3.91;77.10;98993.28;5061878;28;20133;-72
2024/02/03 06:28:37;;;;;;;2.53;0.00;;;;;;;3.92;77.04;99001.88;5066463;28;20148;-72
2024/02/03 06:31:05;;;;;;;5.63;0.13;;;;;;;3.92;77.26;99009.66;5064968;28;20388;-75
2024/02/03 06:33:32;;;;;;;1.10;0.10;;;;;;;3.92;77.05;99014.81;5064254;28;20054;-74
2024/02/03 06:36:00;;;;;;;1.40;0.55;;;;;;;3.91;76.55;99016.56;5067192;28;20510;-74
2024/02/03 06:38:29;;;;;;;1.85;0.50;;;;;;;3.89;76.87;99015.75;5068084;28;20040;-76
2024/02/03 06:40:57;;;;;;;0.70;0.13;;;;;;;3.89;77.09;99014.91;5063903;28;20151;-74
2024/02/03 06:43:24;;;;;;;1.90;0.40;;;;;;;3.86;76.73;99025.31;5067751;28;20777;-74
2024/02/03 06:45:51;;;;;;;3.83;0.10;;;;;;;3.90;77.11;99030.41;5064048;28;20118;-74
2024/02/03 06:48:18;;;;;;;1.08;0.10;;;;;;;3.89;77.08;99023.50;5068001;28;20153;-74
2024/02/03 06:50:45;;;;;;;1.60;0.10;;;;;;;3.88;77.08;99020.97;5060556;28;20158;-74
2024/02/03 06:53:12;;;;;;;2.70;0.10;;;;;;;3.89;76.83;99023.50;5067529;28;20068;-75
2024/02/03 06:55:40;;;;;;;0.60;0.00;;;;;;;3.87;76.76;99027.88;5064089;28;20514;-74
2024/02/03 06:58:07;;;;;;;1.05;0.08;;;;;;;3.89;76.72;99025.25;5065432;28;20177;-74
2024/02/03 07:00:35;;;;;;;2.35;0.10;;;;;;;3.88;76.75;99031.31;5064728;28;20088;-74
2024/02/03 07:03:02;;;;;;;1.13;0.08;;;;;;;3.88;76.84;99044.25;5063058;28;20132;-74
2024/02/03 07:05:29;;;;;;;3.28;0.30;;;;;;;3.88;76.66;99044.25;5065802;28;20116;-75
2024/02/03 07:07:56;;;;;;;2.25;0.10;;;;;;;3.87;76.60;99040.81;5063612;28;20114;-75
2024/02/03 07:10:23;;;;;;;3.30;0.10;;;;;;;3.84;76.91;99032.25;5062830;28;20128;-76
2024/02/03 07:12:51;;;;;;;1.40;0.10;;;;;;;3.88;76.75;99050.28;5069679;28;20111;-75
2024/02/03 07:15:18;;;;;;;1.55;0.05;;;;;;;3.86;76.64;99040.84;5068142;28;20448;-74
2024/02/03 07:17:45;;;;;;;1.90;0.10;;;;;;;3.88;76.46;99050.28;5070332;28;20072;-75
2024/02/03 07:20:13;;;;;;;1.67;0.10;;;;;;;3.89;76.55;99058.88;5070428;28;20508;-76
2024/02/03 07:22:40;;;;;;;2.90;0.70;;;;;;;3.90;76.70;99063.19;5069127;28;20064;-75
2024/02/03 07:25:07;;;;;;;0.88;0.20;;;;;;;3.90;76.37;99063.19;5068467;28;20045;-74
2024/02/03 07:27:34;;;;;;;2.38;0.30;;;;;;;3.91;76.30;99067.47;5069090;28;20123;-76
2024/02/03 07:30:03;;;;;;;1.98;0.10;;;;;;;3.91;76.38;99063.13;5068514;28;20072;-75
2024/02/03 07:32:30;;;;;;;2.95;0.38;;;;;;;3.91;76.51;99059.72;5048977;28;20053;-75
2024/02/03 07:34:57;;;;;;;0.40;0.35;;;;;;;3.93;76.02;99073.47;5071895;28;20047;-75
2024/02/03 07:37:24;;;;;;;2.00;0.10;;;;;;;3.89;76.19;99064.91;5068399;28;20483;-75
2024/02/03 07:39:51;;;;;;;5.05;0.20;;;;;;;3.94;76.00;99075.16;5071219;28;20102;-74
2024/02/03 07:42:18;;;;;;;6.72;0.40;;;;;;;3.92;76.20;99071.75;5068102;28;20048;-73
2024/02/03 07:44:46;;;;;;;1.35;0.10;;;;;;;3.95;76.09;99079.44;5070964;28;20051;-73
2024/02/03 07:47:14;;;;;;;3.08;0.00;;;;;;;3.96;75.88;99079.41;5066788;28;20132;-73
2024/02/03 07:49:41;;;;;;;2.13;0.35;;;;;;;3.97;75.79;99077.66;5071276;28;20080;-72
2024/02/03 07:52:08;;;;;;;2.92;0.10;;;;;;;3.96;75.86;99075.97;5069611;28;20871;-73
2024/02/03 07:54:35;;;;;;;2.28;0.10;;;;;;;4.00;75.88;99082.78;5072102;28;20106;-73
2024/02/03 07:57:02;;;;;;;2.58;0.10;;;;;;;4.00;75.58;99090.53;5069966;28;20086;-73
2024/02/03 07:59:29;;;;;;;4.15;0.15;;;;;;;4.01;75.85;99087.09;5070588;28;20071;-72
2024/02/03 08:01:57;;;;;;;1.55;0.10;;;;;;;4.01;75.50;99084.50;5068331;28;20064;-72
2024/02/03 08:04:26;;;;;;;2.67;0.03;;;;;;;4.05;75.32;99090.44;5071384;28;20055;-72
2024/02/03 08:06:52;;;;;;;3.40;0.10;;;;;;;4.04;74.96;99081.84;5067194;28;20128;-72
2024/02/03 08:09:19;;;;;;;0.35;0.10;;;;;;;4.06;75.30;99080.03;5070798;28;20096;-73
2024/02/03 08:11:47;;;;;;;1.80;0.10;;;;;;;4.07;75.11;99079.19;5068082;28;20102;-73
2024/02/03 08:14:14;;;;;;;3.20;0.10;;;;;;;4.08;75.18;99091.22;5068513;28;20559;-73
2024/02/03 08:16:41;;;;;;;1.50;0.10;;;;;;;4.09;74.84;99095.50;5066889;28;20085;-73
2024/02/03 08:19:08;;;;;;;0.85;0.10;;;;;;;4.10;75.05;99096.38;5069563;28;20481;-73
2024/02/03 08:21:37;;;;;;;3.63;0.10;;;;;;;4.11;75.00;99101.50;5069012;28;20083;-73
2024/02/03 08:24:04;;;;;;;1.10;0.00;;;;;;;4.11;74.97;99106.69;5069398;28;20411;-73
2024/02/03 08:26:31;;;;;;;3.15;0.22;;;;;;;4.15;74.80;99116.09;5067856;28;20147;-74
2024/02/03 08:28:58;;;;;;;1.88;0.10;;;;;;;4.17;74.84;99114.28;5065956;28;20135;-73
2024/02/03 08:31:25;;;;;;;8.20;0.10;;;;;;;4.18;74.67;99113.44;5066338;28;20045;-74
2024/02/03 08:33:52;;;;;;;2.38;0.10;;;;;;;4.19;74.63;99102.19;5066903;28;20463;-74
2024/02/03 08:36:19;;;;;;;1.80;0.32;;;;;;;4.22;74.62;99095.22;5064034;28;20554;-74
2024/02/03 08:38:48;;;;;;;0.70;0.10;;;;;;;4.24;74.33;99109.00;5069019;28;20545;-74
2024/02/03 08:41:15;;;;;;;1.95;0.10;;;;;;;4.26;74.32;99102.88;5065209;28;20495;-74
2024/02/03 08:43:42;;;;;;;2.05;0.10;;;;;;;4.25;74.36;99101.19;5067164;28;20041;-74
2024/02/03 08:46:09;;;;;;;4.68;0.10;;;;;;;4.31;74.36;99108.78;5066914;28;20475;-75
2024/02/03 08:48:36;;;;;;;0.80;0.10;;;;;;;4.35;74.18;99101.78;5067661;28;20075;-74
2024/02/03 08:51:03;;;;;;;1.50;0.15;;;;;;;4.36;74.18;99100.94;5067481;28;20461;-74
2024/02/03 08:53:31;;;;;;;0.85;0.50;;;;;;;4.41;74.20;99104.28;5066240;28;20072;-75
2024/02/03 08:56:00;;;;;;;2.47;0.20;;;;;;;4.40;74.10;99111.16;5069618;28;20090;-74
2024/02/03 08:58:27;;;;;;;1.33;0.10;;;;;;;4.48;73.84;99128.25;5059296;28;20056;-75
2024/02/03 09:00:54;;;;;;;2.83;0.32;;;;;;;4.51;73.73;99123.00;5056609;28;20060;-75
2024/02/03 09:03:20;;;;;;;2.10;0.10;;;;;;;4.52;73.49;99117.81;5067412;28;20084;-76
2024/02/03 09:05:47;;;;;;;2.53;0.20;;;;;;;4.56;73.17;99116.84;5063144;28;20131;-76
2024/02/03 09:08:14;;;;;;;1.23;0.25;;;;;;;4.55;73.01;99112.56;5064423;28;20105;-76
2024/02/03 09:10:41;;;;;;;2.92;0.00;;;;;;;4.60;72.91;99118.44;5066426;28;20129;-76
2024/02/03 09:13:10;;;;;;;2.45;0.10;;;;;;;4.61;72.94;99109.81;5064738;28;20087;-75
2024/02/03 09:15:37;;;;;;;0.22;0.10;;;;;;;4.63;72.62;99108.03;5070101;28;20680;-78
2024/02/03 09:18:04;;;;;;;0.57;0.00;;;;;;;4.65;72.55;99110.56;5068888;28;20088;-76
2024/02/03 09:20:31;;;;;;;0.32;0.10;;;;;;;4.68;72.41;99122.59;5068503;28;20080;-77
2024/02/03 09:22:58;;;;;;;2.75;0.10;;;;;;;4.69;72.19;99127.72;5068536;28;20500;-77
2024/02/03 09:25:25;;;;;;;0.20;0.00;;;;;;;4.69;72.31;99122.53;5069443;28;20067;-77
2024/02/03 09:27:52;;;;;;;4.45;0.20;;;;;;;4.72;72.08;99124.22;5072141;28;20095;-78
2024/02/03 09:30:21;;;;;;;4.45;0.15;;;;;;;4.72;71.61;99116.44;5072500;28;20478;-77
2024/02/03 09:32:49;;;;;;;1.85;0.10;;;;;;;4.70;71.83;99118.25;5066806;28;20047;-77
2024/02/03 09:35:16;;;;;;;0.50;0.10;;;;;;;4.74;71.58;99125.03;5070285;28;20075;-78
2024/02/03 09:37:45;;;;;;;0.45;0.00;;;;;;;4.75;71.66;99137.97;5068353;28;20094;-77
2024/02/03 09:40:19;;;;;;;1.15;0.10;;;;;;;4.77;71.20;99133.56;5070258;28;20052;-77
2024/02/03 09:42:46;;;;;;;4.00;0.32;;;;;;;4.79;71.38;99138.72;5067581;28;20074;-77
2024/02/03 09:45:13;;;;;;;3.50;0.93;;;;;;;4.80;71.20;99137.81;5068325;28;20088;-77
2024/02/03 09:47:42;;;;;;;4.30;0.10;;;;;;;4.80;71.25;99130.91;5072007;28;20569;-79
2024/02/03 09:50:10;;;;;;;9.57;0.20;;;;;;;4.83;70.99;99132.56;5062659;28;20137;-79
2024/02/03 09:52:38;;;;;;;4.03;0.10;;;;;;;4.83;70.93;99132.56;5070873;28;20080;-78
2024/02/03 09:55:06;;;;;;;2.45;0.10;;;;;;;4.86;70.78;99122.13;5071952;28;20101;-77
2024/02/03 09:57:33;;;;;;;3.35;0.10;;;;;;;4.88;70.38;99130.72;5070615;28;20051;-77
2024/02/03 10:00:00;;;;;;;1.25;0.10;;;;;;;4.90;70.48;99136.72;5071783;28;20095;-79
2024/02/03 10:02:27;;;;;;;1.80;0.10;;;;;;;4.92;70.37;99128.88;5072314;28;20091;-79
2024/02/03 10:04:56;;;;;;;3.13;0.10;;;;;;;4.89;70.03;99123.78;5070998;28;20044;-77
2024/02/03 10:07:23;;;;;;;3.88;0.10;;;;;;;4.95;70.16;99140.06;5072705;28;20084;-80
2024/02/03 10:09:52;;;;;;;2.45;0.10;;;;;;;4.92;69.92;99124.56;5070023;28;20072;-79
2024/02/03 10:12:19;;;;;;;1.83;0.10;;;;;;;4.97;69.92;99138.28;5067051;28;20101;-81
2024/02/03 10:14:46;;;;;;;2.17;0.15;;;;;;;4.99;69.71;99133.91;5071948;28;20502;-78
2024/02/03 10:17:21;;;;;;;3.70;0.10;;;;;;;5.02;69.91;99132.97;5072069;28;20307;-81
2024/02/03 10:19:48;;;;;;;6.93;0.20;;;;;;;5.02;69.43;99133.81;5072125;28;20414;-81
2024/02/03 10:22:17;;;;;;;2.20;0.65;;;;;;;5.05;69.66;99135.50;5071034;28;20098;-82
2024/02/03 10:24:44;;;;;;;4.95;0.20;;;;;;;5.01;69.33;99131.28;5068838;28;20075;-83
2024/02/03 10:27:11;;;;;;;1.35;0.10;;;;;;;5.07;69.27;99128.53;5061724;28;20116;-81
2024/02/03 10:29:38;;;;;;;4.65;0.20;;;;;;;5.11;69.30;99137.91;5071205;28;20072;-82
2024/02/03 10:32:05;;;;;;;3.63;0.10;;;;;;;5.13;68.90;99137.88;5068219;28;20135;-83
2024/02/03 10:34:33;;;;;;;2.58;0.10;;;;;;;5.16;69.14;99145.59;5071254;28;20076;-83
2024/02/03 10:37:00;;;;;;;2.85;0.10;;;;;;;5.16;68.84;99146.44;5070447;28;20044;-83
2024/02/03 10:39:28;;;;;;;3.30;0.10;;;;;;;5.19;69.01;99145.50;5069038;28;20410;-84
2024/02/03 10:41:59;;;;;;;2.17;0.10;;;;;;;5.20;68.55;99144.59;5071186;28;20510;-86
2024/02/03 10:44:28;;;;;;;3.10;0.10;;;;;;;5.20;68.37;99137.66;5069305;28;20045;-86
2024/02/03 10:47:01;;;;;;;5.03;0.10;;;;;;;5.25;68.61;99137.56;5072332;28;20501;-88
2024/02/03 10:49:32;;;;;;;0.82;0.10;;;;;;;5.24;68.73;99135.88;5072110;28;20083;-88
2024/02/03 10:52:03;;;;;;;3.28;0.10;;;;;;;5.29;68.42;99134.84;5073942;28;20048;-84
2024/02/03 10:54:34;;;;;;;0.60;0.10;;;;;;;5.32;68.67;99141.69;5072604;28;20041;-81
2024/02/03 10:57:04;;;;;;;2.00;0.20;;;;;;;5.31;68.42;99138.22;5074513;28;20036;-81
2024/02/03 10:59:31;;;;;;;4.78;0.20;;;;;;;5.35;68.13;99146.78;5071307;28;20064;-80
2024/02/03 11:01:58;;;;;;;4.03;0.45;;;;;;;5.37;68.44;99144.13;5073806;28;20127;-81
2024/02/03 11:04:25;;;;;;;1.20;0.10;;;;;;;5.38;68.39;99151.03;5076052;28;20080;-81
2024/02/03 11:06:52;;;;;;;2.38;0.10;;;;;;;5.41;68.22;99153.56;5070476;28;20087;-82
2024/02/03 11:09:20;;;;;;;0.75;0.10;;;;;;;5.42;67.98;99158.69;5077408;28;20068;-77
2024/02/03 11:11:50;;;;;;;1.55;0.10;;;;;;;5.41;67.99;99141.44;5071581;28;20382;-78
2024/02/03 11:14:19;;;;;;;2.33;0.10;;;;;;;5.44;67.83;99150.88;5073586;28;20118;-77
2024/02/03 11:16:53;;;;;;;2.60;0.20;;;;;;;5.46;68.03;99151.66;5072561;28;20080;-77
2024/02/03 11:19:26;;;;;;;0.70;0.10;;;;;;;5.46;68.09;99149.94;5073926;28;20052;-80
2024/02/03 11:21:56;;;;;;;3.67;0.10;;;;;;;5.43;67.77;99147.44;5074695;28;20079;-80
2024/02/03 11:24:23;;;;;;;0.52;0.10;;;;;;;5.41;67.63;99138.84;5075087;28;20079;-80
2024/02/03 11:26:57;;;;;;;2.72;0.10;;;;;;;5.45;67.92;99144.78;5074876;28;20055;-81
2024/02/03 11:29:24;;;;;;;2.40;0.20;;;;;;;5.41;67.66;99138.84;5073223;28;20052;-81
2024/02/03 11:31:58;;;;;;;2.85;0.10;;;;;;;5.38;67.46;99141.53;5075875;28;20495;-81
2024/02/03 11:34:27;;;;;;;3.83;0.17;;;;;;;5.38;67.36;99128.56;5073298;28;20044;-80
2024/02/03 11:36:54;;;;;;;0.75;0.10;;;;;;;5.36;67.00;99125.13;5075371;28;20052;-81
2024/02/03 11:39:30;;;;;;;0.88;0.10;;;;;;;5.46;66.87;99147.34;5074673;28;20201;-82
2024/02/03 11:41:59;;;;;;;0.57;0.10;;;;;;;5.45;66.57;99145.63;5071905;28;20045;-87